createdAt,value
2022-12-11T00:01:55.843Z,92842.84
2022-12-11T00:04:25.462Z,92838.16
2022-12-11T00:06:54.840Z,92810.94
2022-12-11T00:09:26.456Z,92813.22
2022-12-11T00:11:56.208Z,92800.75
2022-12-11T00:14:25.880Z,92809.94
2022-12-11T00:16:55.007Z,92803.16
2022-12-11T00:19:24.805Z,92803.59
2022-12-11T00:21:53.830Z,92801.16
2022-12-11T00:24:22.821Z,92808.56
2022-12-11T00:26:54.027Z,92823.97
2022-12-11T00:29:23.143Z,92827.41
2022-12-11T00:31:52.235Z,92822.31
2022-12-11T00:34:22.053Z,92819.63
2022-12-11T00:36:51.694Z,92813.97
2022-12-11T00:39:20.951Z,92809.09
2022-12-11T00:41:50.605Z,92817.16
2022-12-11T00:44:22.026Z,92826.06
2022-12-11T00:46:51.396Z,92822.16
2022-12-11T00:49:20.605Z,92838.16
2022-12-11T00:51:49.642Z,92816.66
2022-12-11T00:54:18.872Z,92828.69
2022-12-11T00:56:48.618Z,92824.75
2022-12-11T00:59:18.249Z,92825.72
2022-12-11T01:01:48.862Z,92823.63
2022-12-11T01:04:18.654Z,92796.66
2022-12-11T01:06:47.868Z,92751.09
2022-12-11T01:09:34.776Z,92748.56
2022-12-11T01:12:04.019Z,92760.94
2022-12-11T01:14:33.808Z,92747.59
2022-12-11T01:17:05.224Z,92757.13
2022-12-11T01:19:34.607Z,92751.31
2022-12-11T01:22:04.268Z,92745.41
2022-12-11T01:24:33.281Z,92742.56
2022-12-11T01:27:02.905Z,92756.41
2022-12-11T01:29:33.030Z,92760.47
2022-12-11T01:32:02.225Z,92763.16
2022-12-11T01:34:33.618Z,92751.72
2022-12-11T01:37:02.685Z,92775.06
2022-12-11T01:39:31.900Z,92761.78
2022-12-11T01:42:02.947Z,92772.28
2022-12-11T01:45:09.483Z,92767.28
2022-12-11T01:47:38.807Z,92776.22
2022-12-11T01:50:10.384Z,92759.28
2022-12-11T01:52:39.565Z,92768.22
2022-12-11T01:55:10.424Z,92765.22
2022-12-11T01:57:43.662Z,92773.69
2022-12-11T02:00:13.942Z,92794.50
2022-12-11T02:02:43.274Z,92801.28
2022-12-11T02:05:15.785Z,92801.88
2022-12-11T02:07:49.961Z,92812.69
2022-12-11T02:10:19.205Z,92817.56
2022-12-11T02:12:57.529Z,92831.19
2022-12-11T02:15:35.085Z,92826.22
2022-12-11T02:18:15.725Z,92825.59
2022-12-11T02:20:55.276Z,92844.47
2022-12-11T02:23:44.688Z,92860.63
2022-12-11T02:26:34.103Z,92859.22
2022-12-11T02:29:08.825Z,92859.34
2022-12-11T02:31:43.382Z,92852.91
2022-12-11T02:34:19.705Z,92851.97
2022-12-11T02:36:53.989Z,92839.63
2022-12-11T02:39:23.332Z,92831.63
2022-12-11T02:41:54.171Z,92818.63
2022-12-11T02:44:29.181Z,92828.47
2022-12-11T02:46:59.799Z,92823.63
2022-12-11T02:49:30.235Z,92838.53
2022-12-11T02:52:03.236Z,92840.69
2022-12-11T02:54:34.884Z,92835.66
2022-12-11T02:57:10.120Z,92829.25
2022-12-11T02:59:43.197Z,92825.44
2022-12-11T03:02:14.167Z,92825.44
2022-12-11T03:04:45.234Z,92825.44
2022-12-11T03:07:17.682Z,92814.81
2022-12-11T03:09:48.287Z,92816.25
2022-12-11T03:12:20.903Z,92830.19
2022-12-11T03:14:52.427Z,92829.69
2022-12-11T03:17:25.051Z,92829.09
2022-12-11T03:20:04.176Z,92841.47
2022-12-11T03:22:39.865Z,92853.97
2022-12-11T03:25:12.279Z,92859.72
2022-12-11T03:27:48.302Z,92862.69
2022-12-11T03:30:20.926Z,92856.06
2022-12-11T03:32:54.576Z,92863.91
2022-12-11T03:35:28.004Z,92857.66
2022-12-11T03:38:00.117Z,92869.53
2022-12-11T03:40:33.420Z,92866.22
2022-12-11T03:43:06.623Z,92887.09
2022-12-11T03:45:39.672Z,92903.75
2022-12-11T03:48:11.532Z,92897.53
2022-12-11T03:50:42.318Z,92892.09
2022-12-11T03:53:12.051Z,92892.88
2022-12-11T03:55:43.358Z,92911.13
2022-12-11T03:58:12.633Z,92911.13
2022-12-11T04:00:43.205Z,92913.63
2022-12-11T04:03:15.190Z,92913.16
2022-12-11T04:05:47.334Z,92915.50
2022-12-11T04:08:17.617Z,92909.69
2022-12-11T04:10:46.837Z,92933.22
2022-12-11T04:13:16.208Z,92937.59
2022-12-11T04:15:45.851Z,92929.22
2022-12-11T04:18:32.166Z,92923.75
2022-12-11T04:21:18.561Z,92921.78
2022-12-11T04:24:04.908Z,92928.22
2022-12-11T04:26:35.569Z,92932.75
2022-12-11T04:29:05.398Z,92912.47
2022-12-11T04:31:36.155Z,92915.44
2022-12-11T04:34:05.888Z,92911.69
2022-12-11T04:36:34.874Z,92905.38
2022-12-11T04:39:04.046Z,92927.75
2022-12-11T04:41:33.587Z,92929.75
2022-12-11T04:44:02.886Z,92918.00
2022-12-11T04:46:32.150Z,92911.41
2022-12-11T04:49:03.359Z,92916.69
2022-12-11T04:51:32.556Z,92911.25
2022-12-11T04:54:01.732Z,92913.78
2022-12-11T04:56:30.815Z,92918.50
2022-12-11T04:58:59.909Z,92918.50
2022-12-11T05:01:28.866Z,92904.66
2022-12-11T05:03:58.086Z,92906.13
2022-12-11T05:06:29.443Z,92910.84
2022-12-11T05:09:00.195Z,92908.97
2022-12-11T05:11:33.779Z,92916.47
2022-12-11T05:14:02.743Z,92919.75
2022-12-11T05:16:31.932Z,92922.44
2022-12-11T05:19:01.102Z,92922.44
2022-12-11T05:21:34.987Z,92923.66
2022-12-11T05:24:04.828Z,92924.66
2022-12-11T05:26:34.595Z,92927.59
2022-12-11T05:29:03.685Z,92929.00
2022-12-11T05:31:32.999Z,92932.31
2022-12-11T05:34:02.682Z,92937.16
2022-12-11T05:36:35.317Z,92934.97
2022-12-11T05:39:06.220Z,92933.84
2022-12-11T05:41:35.749Z,92933.19
2022-12-11T05:44:04.883Z,92927.25
2022-12-11T05:46:34.050Z,92913.34
2022-12-11T05:49:04.110Z,92910.50
2022-12-11T05:51:35.536Z,92912.56
2022-12-11T05:54:05.528Z,92906.91
2022-12-11T05:56:36.556Z,92910.38
2022-12-11T05:59:08.084Z,92921.00
2022-12-11T06:01:39.563Z,92924.91
2022-12-11T06:04:11.690Z,92936.44
2022-12-11T06:06:44.564Z,92932.84
2022-12-11T06:09:16.747Z,92929.16
2022-12-11T06:11:45.773Z,92940.03
2022-12-11T06:14:14.770Z,92954.25
2022-12-11T06:16:44.598Z,92946.91
2022-12-11T06:19:17.136Z,92943.53
2022-12-11T06:21:51.008Z,92954.44
2022-12-11T06:24:20.120Z,92958.97
2022-12-11T06:26:49.255Z,92963.19
2022-12-11T06:29:18.563Z,92951.38
2022-12-11T06:49:32.105Z,92940.88
2022-12-11T06:52:01.827Z,92942.78
2022-12-11T06:54:31.492Z,92946.50
2022-12-11T06:57:00.534Z,92936.47
2022-12-11T06:59:29.546Z,92941.50
2022-12-11T07:01:58.587Z,92942.78
2022-12-11T07:04:27.948Z,92948.09
2022-12-11T07:06:58.748Z,92956.97
2022-12-11T07:09:27.942Z,92951.66
2022-12-11T07:11:57.224Z,92970.69
2022-12-11T07:14:26.252Z,92978.53
2022-12-11T07:16:55.378Z,92978.31
2022-12-11T07:19:24.431Z,92984.19
2022-12-11T07:21:53.447Z,92984.69
2022-12-11T07:24:24.604Z,92987.22
2022-12-11T07:26:54.301Z,92987.50
2022-12-11T07:29:23.542Z,92986.19
2022-12-11T07:31:53.264Z,92996.00
2022-12-11T07:34:23.616Z,92990.00
2022-12-11T07:36:53.022Z,92996.25
2022-12-11T07:39:23.734Z,92995.75
2022-12-11T07:41:52.820Z,93008.31
2022-12-11T07:44:22.764Z,93000.63
2022-12-11T07:46:51.886Z,92994.16
2022-12-11T07:49:21.321Z,92998.56
2022-12-11T07:51:50.374Z,92996.03
2022-12-11T07:54:21.311Z,92980.06
2022-12-11T07:56:53.890Z,92986.97
2022-12-11T07:59:23.526Z,92985.06
2022-12-11T08:01:52.603Z,92984.22
2022-12-11T08:04:21.979Z,92995.28
2022-12-11T08:06:51.750Z,92996.75
2022-12-11T08:09:22.891Z,92998.66
2022-12-11T08:11:53.403Z,92998.25
2022-12-11T08:14:23.166Z,92992.28
2022-12-11T08:16:52.543Z,92992.97
2022-12-11T08:19:21.944Z,92996.25
2022-12-11T08:21:51.026Z,92978.22
2022-12-11T08:24:21.259Z,92980.13
2022-12-11T08:26:50.736Z,92979.06
2022-12-11T08:29:21.265Z,92977.13
2022-12-11T08:31:50.536Z,92980.31
2022-12-11T08:34:20.311Z,92967.16
2022-12-11T08:36:49.462Z,92976.63
2022-12-11T08:39:18.567Z,92985.63
2022-12-11T08:41:47.837Z,92977.78
2022-12-11T08:44:17.205Z,92982.84
2022-12-11T08:46:48.392Z,92983.94
2022-12-11T08:49:17.762Z,92977.66
2022-12-11T08:51:46.723Z,92983.91
2022-12-11T08:54:16.476Z,92988.16
2022-12-11T08:56:45.784Z,92988.44
2022-12-11T08:59:14.947Z,92983.13
2022-12-11T09:01:44.658Z,92983.91
2022-12-11T09:04:16.479Z,92981.25
2022-12-11T09:06:46.283Z,92986.47
2022-12-11T09:09:16.447Z,92996.47
2022-12-11T09:11:45.623Z,92993.84
2022-12-11T09:14:16.312Z,93003.69
2022-12-11T09:16:45.352Z,93006.03
2022-12-11T09:19:18.633Z,93012.78
2022-12-11T09:21:47.770Z,93010.91
2022-12-11T09:24:19.864Z,92999.50
2022-12-11T09:26:49.119Z,92991.28
2022-12-11T09:29:18.382Z,92989.50
2022-12-11T09:31:49.820Z,92984.56
2022-12-11T09:34:23.630Z,92985.25
2022-12-11T09:36:56.674Z,92984.03
2022-12-11T09:39:26.403Z,92986.38
2022-12-11T09:42:01.779Z,92974.44
2022-12-11T09:44:36.959Z,92971.34
2022-12-11T09:47:27.975Z,92965.72
2022-12-11T09:50:08.475Z,92963.13
2022-12-11T09:52:42.189Z,92952.75
2022-12-11T09:55:24.338Z,92952.78
2022-12-11T09:58:03.279Z,92945.56
2022-12-11T10:00:39.006Z,92946.38
2022-12-11T10:03:27.964Z,92943.72
2022-12-11T10:06:05.334Z,92939.94
2022-12-11T10:08:40.576Z,92942.50
2022-12-11T10:11:31.845Z,92930.56
2022-12-11T10:14:07.753Z,92935.59
2022-12-11T10:16:41.047Z,92936.53
2022-12-11T10:19:18.408Z,92924.44
2022-12-11T10:21:51.193Z,92933.06
2022-12-11T10:24:59.386Z,92932.75
2022-12-11T10:27:19.545Z,92935.22
2022-12-11T10:29:50.534Z,92930.69
2022-12-11T10:32:25.921Z,92937.41
2022-12-11T10:35:02.652Z,92935.09
2022-12-11T10:37:33.473Z,92931.63
2022-12-11T10:40:02.488Z,92933.03
2022-12-11T10:42:33.093Z,92932.53
2022-12-11T10:45:03.594Z,92932.84
2022-12-11T10:47:34.283Z,92939.59
2022-12-11T10:50:05.013Z,92940.78
2022-12-11T10:52:39.277Z,92947.50
2022-12-11T10:55:19.479Z,92952.53
2022-12-11T10:57:57.057Z,92954.31
2022-12-11T11:00:34.508Z,92945.69
2022-12-11T11:03:05.063Z,92955.16
2022-12-11T11:05:36.717Z,92963.13
2022-12-11T11:08:15.335Z,92959.75
2022-12-11T11:10:56.480Z,92965.97
2022-12-11T11:13:30.760Z,92969.22
2022-12-11T11:16:06.748Z,92970.13
2022-12-11T11:18:36.411Z,92974.03
2022-12-11T11:21:05.951Z,92987.22
2022-12-11T11:23:42.581Z,92983.47
2022-12-11T11:26:15.273Z,92985.81
2022-12-11T11:28:50.164Z,92988.38
2022-12-11T11:31:21.756Z,92983.31
2022-12-11T11:33:58.142Z,92980.34
2022-12-11T11:36:28.692Z,92988.78
2022-12-11T11:39:21.795Z,92996.28
2022-12-11T11:41:57.416Z,92992.94
2022-12-11T11:44:32.351Z,92998.84
2022-12-11T11:47:08.142Z,92999.75
2022-12-11T11:49:50.359Z,93008.03
2022-12-11T11:52:27.751Z,93008.03
2022-12-11T11:55:10.425Z,93004.63
2022-12-11T11:57:47.434Z,93005.28
2022-12-11T12:00:23.242Z,93020.44
2022-12-11T12:02:56.165Z,93012.41
2022-12-11T12:05:28.894Z,93001.09
2022-12-11T12:08:08.969Z,93011.94
2022-12-11T12:10:50.727Z,92999.09
2022-12-11T12:13:49.102Z,92992.56
2022-12-11T12:16:52.377Z,92998.22
2022-12-11T12:19:29.830Z,92995.34
2022-12-11T12:22:07.998Z,92992.97
2022-12-11T12:24:49.383Z,92990.13
2022-12-11T12:30:22.340Z,92993.06
2022-12-11T12:33:08.968Z,93012.00
2022-12-11T12:35:41.824Z,93014.41
2022-12-11T12:38:23.561Z,93032.28
2022-12-11T12:41:05.571Z,93022.28
2022-12-11T12:43:55.215Z,93020.69
2022-12-11T12:46:40.986Z,93038.06
2022-12-11T12:49:14.396Z,93037.00
2022-12-11T12:51:45.210Z,93040.38
2022-12-11T12:54:19.361Z,93045.63
2022-12-11T12:56:50.068Z,93052.97
2022-12-11T12:59:26.384Z,93057.72
2022-12-11T13:01:58.950Z,93065.88
2022-12-11T13:04:55.974Z,93061.66
2022-12-11T13:07:31.216Z,93063.22
2022-12-11T13:10:08.720Z,93078.72
2022-12-11T13:12:46.841Z,93083.72
2022-12-11T13:15:39.281Z,93104.50
2022-12-11T13:18:33.788Z,93114.38
2022-12-11T13:21:28.178Z,93125.19
2022-12-11T13:23:58.032Z,93135.13
2022-12-11T13:26:31.844Z,93144.06
2022-12-11T13:29:01.219Z,93165.81
2022-12-11T13:31:35.807Z,93171.03
2022-12-11T13:34:18.936Z,93162.03
2022-12-11T13:36:52.200Z,93153.28
2022-12-11T13:39:25.086Z,93155.44
2022-12-11T13:41:57.107Z,93151.50
2022-12-11T13:44:30.009Z,93151.69
2022-12-11T13:47:02.886Z,93156.44
2022-12-11T13:49:37.478Z,93158.28
2022-12-11T13:52:07.755Z,93161.13
2022-12-11T13:54:37.944Z,93159.97
2022-12-11T13:57:19.001Z,93171.22
2022-12-11T13:59:50.729Z,93168.94
2022-12-11T14:02:25.424Z,93174.88
2022-12-11T14:04:58.384Z,93159.75
2022-12-11T14:07:31.823Z,93163.53
2022-12-11T14:10:04.564Z,93160.97
2022-12-11T14:12:34.892Z,93170.97
2022-12-11T14:15:05.799Z,93200.00
2022-12-11T14:17:38.199Z,93194.47
2022-12-11T14:20:10.078Z,93194.47
2022-12-11T14:22:39.724Z,93195.66
2022-12-11T14:25:22.560Z,93210.09
2022-12-11T14:27:54.490Z,93212.03
2022-12-11T14:30:25.416Z,93219.09
2022-12-11T14:32:59.988Z,93221.41
2022-12-11T14:35:35.652Z,93223.81
2022-12-11T14:38:16.302Z,93209.22
2022-12-11T14:40:49.017Z,93220.38
2022-12-11T14:43:24.884Z,93221.69
2022-12-11T14:45:59.668Z,93217.03
2022-12-11T14:48:35.206Z,93236.59
2022-12-11T14:51:10.339Z,93233.56
2022-12-11T14:53:44.206Z,93234.50
2022-12-11T14:56:19.610Z,93240.53
2022-12-11T14:58:54.668Z,93249.25
2022-12-11T15:01:26.053Z,93245.59
2022-12-11T15:04:08.482Z,93239.50
2022-12-11T15:06:46.498Z,93250.97
2022-12-11T15:09:23.049Z,93245.69
2022-12-11T15:11:53.200Z,93253.31
2022-12-11T15:14:24.642Z,93255.00
2022-12-11T15:16:57.886Z,93262.00
2022-12-11T15:19:30.928Z,93246.13
2022-12-11T15:22:03.418Z,93257.78
2022-12-11T15:24:41.648Z,93253.03
2022-12-11T15:27:24.942Z,93254.53
2022-12-11T15:29:54.256Z,93240.72
2022-12-11T15:32:23.410Z,93239.63
2022-12-11T15:34:55.735Z,93251.41
2022-12-11T15:37:27.007Z,93252.41
2022-12-11T15:39:58.017Z,93248.59
2022-12-11T15:42:28.654Z,93258.38
2022-12-11T15:44:58.502Z,93262.19
2022-12-11T15:47:30.260Z,93249.22
2022-12-11T15:50:03.103Z,93266.94
2022-12-11T15:52:35.260Z,93265.66
2022-12-11T15:55:05.651Z,93271.88
2022-12-11T15:57:36.385Z,93273.31
2022-12-11T16:00:08.725Z,93311.25
2022-12-11T16:02:38.380Z,93339.03
2022-12-11T16:05:10.249Z,93339.25
2022-12-11T16:07:40.120Z,93335.84
2022-12-11T16:10:15.426Z,93350.59
2022-12-11T16:12:45.086Z,93347.88
2022-12-11T16:15:21.406Z,93361.69
2022-12-11T16:18:02.451Z,93356.56
2022-12-11T16:20:34.103Z,93364.81
2022-12-11T16:23:08.348Z,93344.19
2022-12-11T16:25:40.382Z,93342.16
2022-12-11T16:28:13.458Z,93344.75
2022-12-11T16:30:44.400Z,93348.88
2022-12-11T16:33:15.551Z,93359.94
2022-12-11T16:35:46.950Z,93366.59
2022-12-11T16:38:16.960Z,93356.69
2022-12-11T16:40:48.406Z,93371.63
2022-12-11T16:43:17.563Z,93379.91
2022-12-11T16:45:46.819Z,93365.97
2022-12-11T16:48:16.149Z,93367.69
2022-12-11T16:50:46.759Z,93371.41
2022-12-11T16:53:17.806Z,93375.47
2022-12-11T16:55:47.937Z,93371.13
2022-12-11T16:58:20.454Z,93377.91
2022-12-11T17:00:50.719Z,93379.97
2022-12-11T17:03:20.932Z,93375.47
2022-12-11T17:05:51.821Z,93382.75
2022-12-11T17:08:22.284Z,93381.53
2022-12-11T17:10:53.114Z,93387.03
2022-12-11T17:13:22.890Z,93396.94
2022-12-11T17:15:52.158Z,93404.38
2022-12-11T17:18:22.120Z,93408.25
2022-12-11T17:20:53.049Z,93413.59
2022-12-11T17:23:23.039Z,93416.06
2022-12-11T17:25:52.283Z,93409.38
2022-12-11T17:28:21.534Z,93417.13
2022-12-11T17:30:50.696Z,93411.88
2022-12-11T17:33:23.075Z,93416.66
2022-12-11T17:35:54.007Z,93426.31
2022-12-11T17:38:23.407Z,93406.88
2022-12-11T17:40:53.218Z,93406.88
2022-12-11T17:43:22.810Z,93413.94
2022-12-11T17:45:53.881Z,93418.47
2022-12-11T17:48:23.578Z,93419.75
2022-12-11T17:50:54.857Z,93421.66
2022-12-11T17:53:26.691Z,93427.59
2022-12-11T17:55:57.759Z,93426.00
2022-12-11T17:58:27.025Z,93416.88
2022-12-11T18:00:57.869Z,93417.44
2022-12-11T18:03:27.878Z,93420.19
2022-12-11T18:06:04.405Z,93421.56
2022-12-11T18:08:34.113Z,93423.25
2022-12-11T18:11:08.665Z,93428.94
2022-12-11T18:13:38.100Z,93431.81
2022-12-11T18:16:09.816Z,93432.03
2022-12-11T18:18:39.951Z,93427.25
2022-12-11T18:21:18.406Z,93430.53
2022-12-11T18:23:50.225Z,93430.66
2022-12-11T18:26:21.275Z,93424.06
2022-12-11T18:28:52.113Z,93439.88
2022-12-11T18:31:23.315Z,93436.00
2022-12-11T18:33:53.424Z,93429.66
2022-12-11T18:36:25.192Z,93434.97
2022-12-11T18:38:55.202Z,93430.22
2022-12-11T18:41:26.133Z,93431.03
2022-12-11T18:43:57.255Z,93437.03
2022-12-11T18:46:27.527Z,93444.19
2022-12-11T18:48:58.698Z,93445.34
2022-12-11T18:51:31.069Z,93445.22
2022-12-11T18:54:00.651Z,93439.97
2022-12-11T18:56:30.099Z,93439.97
2022-12-11T18:58:59.476Z,93439.31
2022-12-11T19:01:31.040Z,93440.56
2022-12-11T19:04:05.573Z,93431.78
2022-12-11T19:06:39.637Z,93445.66
2022-12-11T19:09:10.602Z,93431.69
2022-12-11T19:11:41.770Z,93442.25
2022-12-11T19:14:13.054Z,93439.31
2022-12-11T19:16:46.331Z,93446.25
2022-12-11T19:19:19.169Z,93447.38
2022-12-11T19:21:51.265Z,93457.84
2022-12-11T19:24:23.321Z,93473.56
2022-12-11T19:26:53.109Z,93485.16
2022-12-11T19:29:24.339Z,93480.03
2022-12-11T19:31:54.294Z,93499.94
2022-12-11T19:34:24.302Z,93494.03
2022-12-11T19:36:55.379Z,93491.97
2022-12-11T19:39:25.794Z,93489.47
2022-12-11T19:41:55.280Z,93491.19
2022-12-11T19:44:25.903Z,93501.28
2022-12-11T19:46:55.498Z,93501.75
2022-12-11T19:49:25.454Z,93508.44
2022-12-11T19:51:56.389Z,93512.66
2022-12-11T19:54:27.268Z,93510.63
2022-12-11T19:56:57.067Z,93502.69
2022-12-11T19:59:26.996Z,93487.88
2022-12-11T20:01:57.362Z,93478.22
2022-12-11T20:04:26.856Z,93480.81
2022-12-11T20:06:57.956Z,93474.00
2022-12-11T20:09:28.122Z,93469.47
2022-12-11T20:11:57.418Z,93468.09
2022-12-11T20:14:27.827Z,93484.13
2022-12-11T20:17:14.941Z,93484.44
2022-12-11T20:19:45.628Z,93473.66
2022-12-11T20:22:16.779Z,93476.34
2022-12-11T20:24:47.368Z,93462.72
2022-12-11T20:27:19.346Z,93463.84
2022-12-11T20:29:49.777Z,93457.47
2022-12-11T20:32:19.092Z,93463.97
2022-12-11T20:34:48.602Z,93477.50
2022-12-11T20:37:20.368Z,93471.72
2022-12-11T20:39:54.662Z,93464.00
2022-12-11T20:42:24.207Z,93465.47
2022-12-11T20:44:54.210Z,93471.34
2022-12-11T20:47:23.382Z,93476.00
2022-12-11T20:49:53.848Z,93471.91
2022-12-11T20:52:24.634Z,93472.16
2022-12-11T20:54:54.279Z,93462.63
2022-12-11T20:57:23.525Z,93473.75
2022-12-11T20:59:52.701Z,93470.56
2022-12-11T21:02:23.333Z,93483.53
2022-12-11T21:04:54.396Z,93481.75
2022-12-11T21:07:27.408Z,93491.19
2022-12-11T21:09:58.387Z,93488.00
2022-12-11T21:12:31.503Z,93487.66
2022-12-11T21:15:00.688Z,93489.25
2022-12-11T21:17:29.763Z,93499.03
2022-12-11T21:19:59.684Z,93505.38
2022-12-11T21:22:30.823Z,93498.44
2022-12-11T21:25:00.033Z,93498.91
2022-12-11T21:27:30.390Z,93497.44
2022-12-11T21:29:59.784Z,93497.88
2022-12-11T21:32:30.211Z,93490.38
2022-12-11T21:35:00.518Z,93490.81
2022-12-11T21:37:31.253Z,93490.81
2022-12-11T21:40:00.533Z,93493.00
2022-12-11T21:42:29.718Z,93493.31
2022-12-11T21:47:48.703Z,93503.22
2022-12-11T21:50:19.567Z,93505.50
2022-12-11T21:52:50.627Z,93508.00
2022-12-11T21:55:20.128Z,93497.88
2022-12-11T21:57:49.250Z,93503.56
2022-12-11T22:00:19.207Z,93501.97
2022-12-11T22:02:48.638Z,93514.72
2022-12-11T22:05:17.840Z,93517.34
2022-12-11T22:07:47.268Z,93520.19
2022-12-11T22:10:18.284Z,93528.56
2022-12-11T22:12:48.053Z,93519.69
2022-12-11T22:15:17.792Z,93522.44
2022-12-11T22:17:46.966Z,93520.72
2022-12-11T22:20:16.159Z,93518.09
2022-12-11T22:22:45.355Z,93510.47
2022-12-11T22:25:14.748Z,93520.94
2022-12-11T22:27:45.451Z,93522.78
2022-12-11T22:30:15.250Z,93529.06
2022-12-11T22:32:45.430Z,93536.00
2022-12-11T22:35:14.789Z,93531.56
2022-12-11T22:37:44.777Z,93534.53
2022-12-11T22:40:14.325Z,93550.34
2022-12-11T22:42:45.745Z,93547.84
2022-12-11T22:45:15.182Z,93551.16
2022-12-11T22:47:44.136Z,93543.53
2022-12-11T22:50:14.517Z,93542.84
2022-12-11T22:52:44.979Z,93540.38
2022-12-11T22:55:14.315Z,93542.50
2022-12-11T22:57:44.982Z,93544.91
2022-12-11T23:00:15.865Z,93547.41
2022-12-11T23:02:48.945Z,93547.72
2022-12-11T23:05:18.246Z,93542.72
2022-12-11T23:07:48.880Z,93547.50
2022-12-11T23:10:20.547Z,93561.41
2022-12-11T23:12:51.156Z,93567.00
2022-12-11T23:15:20.264Z,93567.44
2022-12-11T23:17:49.330Z,93558.91
2022-12-11T23:20:18.482Z,93562.09
2022-12-11T23:22:48.109Z,93574.03
2022-12-11T23:25:17.426Z,93567.44
2022-12-11T23:27:47.631Z,93559.72
2022-12-11T23:30:18.187Z,93553.91
2022-12-11T23:32:47.296Z,93549.09
2022-12-11T23:35:16.911Z,93542.97
2022-12-11T23:37:46.947Z,93557.88
2022-12-11T23:40:17.526Z,93556.28
2022-12-11T23:42:47.271Z,93550.03
2022-12-11T23:45:21.877Z,93551.72
2022-12-11T23:47:51.389Z,93554.56
2022-12-11T23:50:20.749Z,93557.53
2022-12-11T23:52:50.320Z,93555.81
2022-12-11T23:55:20.666Z,93572.88
2022-12-11T23:57:50.610Z,93578.56
